Time;durP1;ratioP1;P1;durP2;ratioP2;P2;SDS_P1;SDS_P2;PMS_P1;PMS_P2;Temp;Humidity;BMP_temperature;BMP_pressure;BME280_temperature;BME280_humidity;BME280_pressure;Samples;Min_cycle;Max_cycle;Signal;HPM_P1;HPM_P2
2021/05/19 00:01:15;;;;;;;6.30;5.53;;;;;;;;;;5054610;28;20262;-82
2021/05/19 00:03:40;;;;;;;5.53;5.10;;;;;;;;;;5054778;28;20262;-82
2021/05/19 00:06:06;;;;;;;6.33;5.43;;;;;;;;;;5054124;28;20703;-82
2021/05/19 00:08:31;;;;;;;6.20;5.60;;;;;;;;;;5054155;28;20306;-82
2021/05/19 00:10:56;;;;;;;5.93;5.40;;;;;;;;;;5054693;28;20273;-82
2021/05/19 00:13:22;;;;;;;5.93;5.43;;;;;;;;;;5053922;28;20241;-82
2021/05/19 00:15:47;;;;;;;6.07;5.50;;;;;;;;;;5054211;28;20249;-82
2021/05/19 00:18:12;;;;;;;6.50;5.93;;;;;;;;;;5054428;28;20171;-83
2021/05/19 00:20:38;;;;;;;6.47;5.87;;;;;;;;;;5052806;28;20172;-83
2021/05/19 00:23:03;;;;;;;6.20;5.60;;;;;;;;;;5053746;28;20540;-83
2021/05/19 00:25:28;;;;;;;5.87;5.37;;;;;;;;;;5053534;28;20168;-83
2021/05/19 00:27:55;;;;;;;5.93;5.33;;;;;;;;;;5054106;28;20558;-83
2021/05/19 00:30:21;;;;;;;6.03;5.40;;;;;;;;;;5053668;28;20223;-83
2021/05/19 00:32:47;;;;;;;5.90;5.30;;;;;;;;;;5053570;28;20204;-83
2021/05/19 00:35:12;;;;;;;5.77;5.20;;;;;;;;;;5053319;28;20179;-83
2021/05/19 00:37:37;;;;;;;6.37;5.20;;;;;;;;;;5054415;28;20282;-83
2021/05/19 00:40:04;;;;;;;6.10;5.60;;;;;;;;;;5053584;28;20176;-83
2021/05/19 00:42:29;;;;;;;5.70;5.10;;;;;;;;;;5053515;28;20233;-83
2021/05/19 00:44:54;;;;;;;5.27;4.77;;;;;;;;;;5053609;28;20576;-83
2021/05/19 00:47:30;;;;;;;5.67;5.07;;;;;;;;;;5053784;28;20623;-83
2021/05/19 00:49:55;;;;;;;5.23;4.70;;;;;;;;;;5053906;28;20608;-83
2021/05/19 00:52:23;;;;;;;5.63;4.90;;;;;;;;;;5053194;28;20198;-83
2021/05/19 00:54:48;;;;;;;4.87;4.47;;;;;;;;;;5053483;28;20176;-83
2021/05/19 00:57:14;;;;;;;5.27;4.70;;;;;;;;;;5053229;28;20254;-83
2021/05/19 00:59:39;;;;;;;5.07;4.67;;;;;;;;;;5053408;28;20167;-82
2021/05/19 01:02:04;;;;;;;4.97;4.57;;;;;;;;;;5053875;28;20229;-82
2021/05/19 01:04:30;;;;;;;4.87;4.47;;;;;;;;;;5053342;28;20628;-82
2021/05/19 01:06:59;;;;;;;4.97;4.50;;;;;;;;;;5053360;28;20187;-82
2021/05/19 01:09:37;;;;;;;4.70;4.40;;;;;;;;;;5053102;28;20564;-82
2021/05/19 01:12:04;;;;;;;4.87;4.53;;;;;;;;;;5053329;28;20184;-82
2021/05/19 01:14:31;;;;;;;4.93;4.53;;;;;;;;;;5053046;28;20582;-82
2021/05/19 01:16:57;;;;;;;5.20;4.70;;;;;;;;;;5053521;28;20176;-82
2021/05/19 01:19:22;;;;;;;5.10;4.70;;;;;;;;;;5053004;28;20171;-82
2021/05/19 01:21:48;;;;;;;5.10;4.70;;;;;;;;;;5053199;28;20542;-82
2021/05/19 01:24:13;;;;;;;4.80;4.40;;;;;;;;;;5052843;28;20582;-82
2021/05/19 01:26:39;;;;;;;5.17;4.70;;;;;;;;;;5053288;28;20168;-82
2021/05/19 01:29:04;;;;;;;4.80;4.40;;;;;;;;;;5053369;28;20167;-82
2021/05/19 01:31:29;;;;;;;4.70;4.30;;;;;;;;;;5054705;28;20224;-82
2021/05/19 01:33:55;;;;;;;5.27;4.87;;;;;;;;;;5056970;28;20253;-82
2021/05/19 01:36:20;;;;;;;4.50;4.20;;;;;;;;;;5057126;28;20242;-82
2021/05/19 01:38:45;;;;;;;5.60;5.10;;;;;;;;;;5056918;28;20171;-82
2021/05/19 01:41:11;;;;;;;5.40;4.90;;;;;;;;;;5056548;28;20635;-81
2021/05/19 01:43:37;;;;;;;5.30;4.80;;;;;;;;;;5056506;28;20230;-82
2021/05/19 01:46:03;;;;;;;5.80;5.00;;;;;;;;;;5056857;28;20176;-82
2021/05/19 01:48:30;;;;;;;5.60;5.20;;;;;;;;;;5055985;28;20175;-82
2021/05/19 01:50:56;;;;;;;5.97;5.47;;;;;;;;;;5056709;28;20168;-82
2021/05/19 01:53:23;;;;;;;6.07;5.47;;;;;;;;;;5056637;28;20547;-82
2021/05/19 01:55:49;;;;;;;5.77;5.27;;;;;;;;;;5056932;28;20234;-82
2021/05/19 01:58:14;;;;;;;5.80;5.30;;;;;;;;;;5056316;28;20172;-82
2021/05/19 02:00:40;;;;;;;6.13;5.53;;;;;;;;;;5056508;28;20168;-83
2021/05/19 02:03:06;;;;;;;5.43;5.03;;;;;;;;;;5056561;28;20531;-82
2021/05/19 02:05:32;;;;;;;6.00;5.50;;;;;;;;;;5056691;28;20179;-82
2021/05/19 02:07:58;;;;;;;5.57;5.10;;;;;;;;;;5056076;28;20179;-82
2021/05/19 02:10:23;;;;;;;5.73;5.23;;;;;;;;;;5056412;28;20171;-82
2021/05/19 02:12:49;;;;;;;6.03;5.47;;;;;;;;;;5054904;28;20297;-82
2021/05/19 02:15:18;;;;;;;5.60;5.10;;;;;;;;;;5056805;28;20226;-82
2021/05/19 02:17:43;;;;;;;6.17;5.57;;;;;;;;;;5056837;28;20168;-82
2021/05/19 02:20:13;;;;;;;5.83;5.33;;;;;;;;;;5056507;28;20175;-82
2021/05/19 02:22:39;;;;;;;5.73;5.33;;;;;;;;;;5056449;28;20176;-82
2021/05/19 02:25:05;;;;;;;6.17;5.57;;;;;;;;;;5056917;28;20186;-82
2021/05/19 02:27:30;;;;;;;5.90;5.37;;;;;;;;;;5055651;28;20263;-82
2021/05/19 02:29:56;;;;;;;5.70;5.10;;;;;;;;;;5055929;28;20634;-82
2021/05/19 02:32:21;;;;;;;5.50;5.00;;;;;;;;;;5055905;28;20196;-83
2021/05/19 02:34:47;;;;;;;6.10;5.60;;;;;;;;;;5056105;28;20211;-83
2021/05/19 02:37:12;;;;;;;6.10;5.60;;;;;;;;;;5056130;28;20229;-83
2021/05/19 02:39:37;;;;;;;5.80;5.30;;;;;;;;;;5055491;28;20179;-82
2021/05/19 02:42:03;;;;;;;5.30;4.90;;;;;;;;;;5055710;28;20182;-82
2021/05/19 02:44:28;;;;;;;5.37;4.87;;;;;;;;;;5053637;28;20179;-83
2021/05/19 02:46:53;;;;;;;5.57;5.10;;;;;;;;;;5055642;28;20164;-83
2021/05/19 02:49:19;;;;;;;5.70;5.20;;;;;;;;;;5056217;28;20264;-83
2021/05/19 02:51:44;;;;;;;5.60;5.20;;;;;;;;;;5055531;28;20254;-83
2021/05/19 02:54:09;;;;;;;5.70;5.20;;;;;;;;;;5055206;28;20220;-82
2021/05/19 02:56:35;;;;;;;5.63;5.17;;;;;;;;;;5054533;28;20267;-83
2021/05/19 02:59:00;;;;;;;5.80;5.30;;;;;;;;;;5055693;28;20191;-83
2021/05/19 03:01:26;;;;;;;5.53;5.03;;;;;;;;;;5055066;28;20199;-83
2021/05/19 03:03:51;;;;;;;5.40;5.00;;;;;;;;;;5055586;28;20604;-83
2021/05/19 03:06:16;;;;;;;5.80;5.30;;;;;;;;;;5055015;28;20602;-83
2021/05/19 03:08:42;;;;;;;5.80;5.27;;;;;;;;;;5055061;28;20176;-83
2021/05/19 03:11:07;;;;;;;6.03;5.50;;;;;;;;;;5055195;28;20199;-83
2021/05/19 03:13:33;;;;;;;6.20;5.70;;;;;;;;;;5055675;28;20202;-82
2021/05/19 03:15:58;;;;;;;6.47;5.87;;;;;;;;;;5054765;28;20179;-82
2021/05/19 03:18:24;;;;;;;5.53;5.13;;;;;;;;;;5055683;28;20172;-82
2021/05/19 03:20:49;;;;;;;6.17;5.67;;;;;;;;;;5055226;28;20642;-82
2021/05/19 03:23:14;;;;;;;6.33;5.83;;;;;;;;;;5054728;28;20195;-83
2021/05/19 03:25:40;;;;;;;6.70;6.10;;;;;;;;;;5055002;28;20250;-83
2021/05/19 03:28:05;;;;;;;6.23;5.73;;;;;;;;;;5055135;28;20512;-83
2021/05/19 03:30:31;;;;;;;6.20;5.60;;;;;;;;;;5054688;28;20223;-82
2021/05/19 03:32:56;;;;;;;6.47;5.93;;;;;;;;;;5054996;28;20199;-82
2021/05/19 03:35:21;;;;;;;7.07;6.40;;;;;;;;;;5054972;28;20584;-83
2021/05/19 03:37:47;;;;;;;6.60;6.00;;;;;;;;;;5054902;28;20223;-82
2021/05/19 03:40:13;;;;;;;6.90;6.30;;;;;;;;;;5054355;28;20164;-83
2021/05/19 03:42:39;;;;;;;6.50;6.00;;;;;;;;;;5053351;28;20230;-83
2021/05/19 03:45:05;;;;;;;6.90;6.23;;;;;;;;;;5054184;28;20561;-83
2021/05/19 03:47:30;;;;;;;6.20;5.70;;;;;;;;;;5054647;28;20205;-83
2021/05/19 03:49:56;;;;;;;6.47;5.80;;;;;;;;;;5054771;28;20176;-83
2021/05/19 03:52:21;;;;;;;6.20;5.70;;;;;;;;;;5054928;28;20547;-83
2021/05/19 03:54:46;;;;;;;6.30;5.70;;;;;;;;;;5054909;28;20176;-82
2021/05/19 03:57:12;;;;;;;7.10;6.40;;;;;;;;;;5054269;28;20217;-83
2021/05/19 03:59:37;;;;;;;6.13;5.53;;;;;;;;;;5054008;28;20168;-83
2021/05/19 04:02:04;;;;;;;6.13;5.60;;;;;;;;;;5053953;28;20233;-83
2021/05/19 04:04:29;;;;;;;5.67;5.17;;;;;;;;;;5054529;28;20175;-83
2021/05/19 04:06:55;;;;;;;6.27;5.77;;;;;;;;;;5054281;28;20168;-83
2021/05/19 04:09:20;;;;;;;6.10;5.60;;;;;;;;;;5054189;28;20168;-83
2021/05/19 04:11:45;;;;;;;6.27;5.77;;;;;;;;;;5054174;28;20172;-82
2021/05/19 04:14:11;;;;;;;5.70;5.30;;;;;;;;;;5054162;28;20174;-82
2021/05/19 04:16:36;;;;;;;6.00;5.43;;;;;;;;;;5054673;28;20196;-82
2021/05/19 04:19:03;;;;;;;5.63;5.23;;;;;;;;;;5054612;28;20171;-83
2021/05/19 04:21:28;;;;;;;6.00;5.47;;;;;;;;;;5054625;28;20200;-82
2021/05/19 04:23:53;;;;;;;6.00;5.50;;;;;;;;;;5053645;28;20187;-82
2021/05/19 04:26:19;;;;;;;6.07;5.57;;;;;;;;;;5054019;28;20225;-82
2021/05/19 04:28:44;;;;;;;5.60;5.10;;;;;;;;;;5053728;28;20167;-82
2021/05/19 04:31:10;;;;;;;5.40;4.90;;;;;;;;;;5054664;28;20232;-82
2021/05/19 04:33:35;;;;;;;5.30;4.90;;;;;;;;;;5053783;28;20300;-82
2021/05/19 04:36:01;;;;;;;6.17;5.33;;;;;;;;;;5053400;28;20196;-82
2021/05/19 04:38:27;;;;;;;5.97;5.37;;;;;;;;;;5053294;28;20183;-82
2021/05/19 04:40:52;;;;;;;5.83;5.33;;;;;;;;;;5053767;28;20171;-82
2021/05/19 04:43:18;;;;;;;6.60;6.10;;;;;;;;;;5053483;28;20190;-82
2021/05/19 04:45:44;;;;;;;6.80;5.90;;;;;;;;;;5053423;28;20172;-82
2021/05/19 04:48:09;;;;;;;5.77;5.27;;;;;;;;;;5053805;28;20168;-82
2021/05/19 04:50:34;;;;;;;6.40;5.90;;;;;;;;;;5053736;28;20174;-83
2021/05/19 04:53:00;;;;;;;6.60;6.07;;;;;;;;;;5053582;28;20196;-83
2021/05/19 04:55:26;;;;;;;6.23;5.73;;;;;;;;;;5053305;28;20643;-83
2021/05/19 04:57:51;;;;;;;7.33;5.83;;;;;;;;;;5052703;28;20642;-83
2021/05/19 05:00:17;;;;;;;6.00;5.40;;;;;;;;;;5053553;28;20175;-82
2021/05/19 05:02:42;;;;;;;6.00;5.50;;;;;;;;;;5054243;28;20216;-83
2021/05/19 05:05:08;;;;;;;6.57;5.87;;;;;;;;;;5053681;28;20577;-83
2021/05/19 05:07:34;;;;;;;6.30;5.70;;;;;;;;;;5056243;28;20202;-83
2021/05/19 05:10:00;;;;;;;6.53;6.03;;;;;;;;;;5057530;28;20171;-83
2021/05/19 05:12:26;;;;;;;6.27;5.77;;;;;;;;;;5057667;28;20202;-83
2021/05/19 05:14:51;;;;;;;6.53;6.03;;;;;;;;;;5057687;28;20171;-83
2021/05/19 05:17:16;;;;;;;6.93;6.33;;;;;;;;;;5057347;28;20172;-83
2021/05/19 05:19:42;;;;;;;7.00;6.40;;;;;;;;;;5057596;28;20171;-83
2021/05/19 05:22:07;;;;;;;6.80;6.10;;;;;;;;;;5057058;28;20186;-83
2021/05/19 05:24:32;;;;;;;6.10;5.60;;;;;;;;;;5057262;28;20206;-83
2021/05/19 05:26:58;;;;;;;5.87;5.43;;;;;;;;;;5057658;28;20168;-83
2021/05/19 05:29:23;;;;;;;6.40;5.90;;;;;;;;;;5056875;28;20198;-83
2021/05/19 05:31:48;;;;;;;6.13;5.53;;;;;;;;;;5056908;28;20249;-83
2021/05/19 05:34:14;;;;;;;6.00;5.50;;;;;;;;;;5057435;28;20192;-83
2021/05/19 05:36:39;;;;;;;5.70;5.20;;;;;;;;;;5057073;28;20172;-83
2021/05/19 05:39:04;;;;;;;6.20;5.60;;;;;;;;;;5056754;28;20172;-83
2021/05/19 05:41:30;;;;;;;6.47;5.83;;;;;;;;;;5057061;28;20168;-83
2021/05/19 05:43:55;;;;;;;7.03;6.23;;;;;;;;;;5057318;28;20218;-83
2021/05/19 05:46:21;;;;;;;5.80;5.33;;;;;;;;;;5056646;28;20247;-83
2021/05/19 05:48:46;;;;;;;5.27;4.87;;;;;;;;;;5056333;28;20600;-83
2021/05/19 05:51:11;;;;;;;5.77;5.27;;;;;;;;;;5057059;28;20217;-82
2021/05/19 05:53:37;;;;;;;5.80;5.30;;;;;;;;;;5056498;28;20198;-82
2021/05/19 05:56:02;;;;;;;6.53;6.03;;;;;;;;;;5056675;28;20229;-83
2021/05/19 05:58:27;;;;;;;6.03;5.63;;;;;;;;;;5056996;28;20225;-83
2021/05/19 06:00:53;;;;;;;9.13;6.47;;;;;;;;;;5056720;28;20639;-84
2021/05/19 06:03:18;;;;;;;6.33;5.73;;;;;;;;;;5056330;28;20203;-84
2021/05/19 06:05:43;;;;;;;5.90;5.40;;;;;;;;;;5056212;28;20253;-83
2021/05/19 06:08:09;;;;;;;6.77;5.33;;;;;;;;;;5056668;28;20515;-83
2021/05/19 06:10:35;;;;;;;13.17;6.10;;;;;;;;;;5056338;28;20640;-83
2021/05/19 06:13:00;;;;;;;6.20;5.60;;;;;;;;;;5055996;28;20199;-84
2021/05/19 06:15:26;;;;;;;5.73;5.33;;;;;;;;;;5056112;28;20167;-84
2021/05/19 06:17:51;;;;;;;6.00;5.50;;;;;;;;;;5055101;28;20190;-83
2021/05/19 06:20:17;;;;;;;5.33;4.83;;;;;;;;;;5056556;28;20572;-83
2021/05/19 06:22:42;;;;;;;5.37;4.93;;;;;;;;;;5055837;28;20612;-83
2021/05/19 06:25:08;;;;;;;5.03;4.50;;;;;;;;;;5056399;28;20495;-83
2021/05/19 06:27:33;;;;;;;4.80;4.40;;;;;;;;;;5056407;28;20207;-83
2021/05/19 06:29:58;;;;;;;4.30;4.00;;;;;;;;;;5055880;28;20673;-83
2021/05/19 06:32:24;;;;;;;4.40;4.00;;;;;;;;;;5056063;28;20192;-83
2021/05/19 06:34:49;;;;;;;4.27;3.90;;;;;;;;;;5056031;28;20524;-84
2021/05/19 06:37:15;;;;;;;5.03;4.03;;;;;;;;;;5055690;28;20191;-84
2021/05/19 06:39:40;;;;;;;4.03;3.70;;;;;;;;;;5053611;28;20187;-83
2021/05/19 06:42:06;;;;;;;4.80;3.70;;;;;;;;;;5040928;28;20188;-83
2021/05/19 06:44:31;;;;;;;4.73;4.33;;;;;;;;;;5051832;28;20182;-84
2021/05/19 06:46:57;;;;;;;6.63;5.17;;;;;;;;;;5055774;28;20659;-85
2021/05/19 06:49:22;;;;;;;5.43;4.93;;;;;;;;;;5055992;28;20172;-85
2021/05/19 06:51:48;;;;;;;5.03;4.53;;;;;;;;;;5055508;28;20253;-85
2021/05/19 06:54:13;;;;;;;4.40;4.00;;;;;;;;;;5055698;28;20168;-84
2021/05/19 06:56:45;;;;;;;4.57;4.20;;;;;;;;;;5055443;28;20176;-84
2021/05/19 06:59:11;;;;;;;4.33;3.87;;;;;;;;;;5047562;28;20188;-84
2021/05/19 07:01:37;;;;;;;4.38;3.97;;;;;;;;;;5054700;28;20194;-84
2021/05/19 07:04:04;;;;;;;7.93;4.43;;;;;;;;;;5049509;28;20535;-84
2021/05/19 07:06:29;;;;;;;4.57;4.20;;;;;;;;;;5045573;28;20183;-84
2021/05/19 07:08:54;;;;;;;4.90;4.40;;;;;;;;;;5049228;28;20191;-83
2021/05/19 07:11:20;;;;;;;4.97;4.55;;;;;;;;;;5051271;28;20172;-83
2021/05/19 07:13:45;;;;;;;5.03;4.63;;;;;;;;;;5053117;28;20215;-83
2021/05/19 07:16:13;;;;;;;5.35;4.90;;;;;;;;;;5054949;28;20271;-83
2021/05/19 07:18:38;;;;;;;5.70;5.30;;;;;;;;;;5052653;28;20175;-83
2021/05/19 07:21:03;;;;;;;5.68;5.28;;;;;;;;;;5054783;28;20167;-84
2021/05/19 07:23:29;;;;;;;5.90;5.40;;;;;;;;;;5052466;28;20196;-83
2021/05/19 07:25:54;;;;;;;5.85;5.40;;;;;;;;;;5052217;28;20172;-85
2021/05/19 07:28:19;;;;;;;5.88;5.38;;;;;;;;;;5044637;28;20183;-84
2021/05/19 07:30:47;;;;;;;5.55;5.05;;;;;;;;;;5044884;28;20764;-85
2021/05/19 07:33:12;;;;;;;6.00;5.60;;;;;;;;;;5044851;28;20204;-85
2021/05/19 07:35:38;;;;;;;5.90;5.50;;;;;;;;;;5049546;28;20183;-85
2021/05/19 07:38:07;;;;;;;6.65;6.05;;;;;;;;;;5051826;28;20590;-85
2021/05/19 07:40:33;;;;;;;6.60;6.07;;;;;;;;;;5052935;28;20180;-84
2021/05/19 07:42:58;;;;;;;8.02;6.80;;;;;;;;;;5046773;28;20184;-84
2021/05/19 07:45:24;;;;;;;6.80;6.18;;;;;;;;;;5050911;28;20180;-85
2021/05/19 07:47:49;;;;;;;7.18;6.43;;;;;;;;;;5044786;28;20729;-85
2021/05/19 07:50:14;;;;;;;6.40;5.90;;;;;;;;;;5060175;28;20176;-84
2021/05/19 07:52:40;;;;;;;7.25;6.00;;;;;;;;;;5052783;28;20543;-84
2021/05/19 07:55:08;;;;;;;6.63;5.68;;;;;;;;;;5043584;28;20548;-84
2021/05/19 07:57:48;;;;;;;5.65;5.15;;;;;;;;;;5033257;28;20275;-84
2021/05/19 08:00:21;;;;;;;6.15;5.65;;;;;;;;;;5054487;28;20155;-85
2021/05/19 08:02:47;;;;;;;6.38;5.68;;;;;;;;;;5053918;28;20250;-86
2021/05/19 08:05:13;;;;;;;6.82;6.15;;;;;;;;;;5047979;28;20188;-85
2021/05/19 08:07:38;;;;;;;6.57;6.00;;;;;;;;;;5047433;28;20686;-85
2021/05/19 08:10:04;;;;;;;5.90;5.40;;;;;;;;;;5052627;28;20613;-86
2021/05/19 08:12:29;;;;;;;6.18;5.68;;;;;;;;;;5045319;28;20210;-85
2021/05/19 08:14:55;;;;;;;5.90;5.47;;;;;;;;;;5050312;28;20341;-85
2021/05/19 08:17:20;;;;;;;9.60;6.25;;;;;;;;;;5052964;28;20514;-84
2021/05/19 08:19:46;;;;;;;6.18;5.68;;;;;;;;;;5052363;28;20171;-84
2021/05/19 08:22:13;;;;;;;6.40;5.88;;;;;;;;;;5052662;28;20568;-84
2021/05/19 08:24:39;;;;;;;10.52;6.50;;;;;;;;;;5052264;28;20192;-84
2021/05/19 08:27:04;;;;;;;20.10;8.10;;;;;;;;;;5053226;28;20639;-84
2021/05/19 08:29:29;;;;;;;12.25;7.70;;;;;;;;;;5052886;28;20179;-85
2021/05/19 08:31:55;;;;;;;7.78;7.18;;;;;;;;;;5052886;28;20274;-85
2021/05/19 08:34:20;;;;;;;8.75;6.80;;;;;;;;;;5053801;28;20215;-85
2021/05/19 08:36:45;;;;;;;7.57;6.97;;;;;;;;;;5053942;28;20601;-86
2021/05/19 08:39:10;;;;;;;23.00;8.90;;;;;;;;;;5053675;28;20523;-85
2021/05/19 08:41:37;;;;;;;13.23;7.90;;;;;;;;;;5052938;28;20247;-86
2021/05/19 08:44:03;;;;;;;8.63;7.73;;;;;;;;;;5052557;28;20187;-86
2021/05/19 08:46:28;;;;;;;8.43;7.63;;;;;;;;;;5053560;28;20178;-87
2021/05/19 08:49:03;;;;;;;8.40;7.60;;;;;;;;;;5053522;28;20167;-86
2021/05/19 08:51:28;;;;;;;9.03;8.23;;;;;;;;;;5053345;28;20179;-84
2021/05/19 08:53:53;;;;;;;8.87;8.07;;;;;;;;;;5053345;28;20233;-83
2021/05/19 08:56:19;;;;;;;9.37;8.47;;;;;;;;;;5051679;28;20176;-84
2021/05/19 08:58:44;;;;;;;9.80;8.27;;;;;;;;;;5052273;28;20174;-84
2021/05/19 09:01:18;;;;;;;9.67;8.77;;;;;;;;;;5053045;28;20167;-84
2021/05/19 09:03:43;;;;;;;10.03;9.03;;;;;;;;;;5049618;28;20178;-84
2021/05/19 09:06:10;;;;;;;13.73;9.00;;;;;;;;;;5045107;28;20176;-84
2021/05/19 09:08:39;;;;;;;12.90;9.70;;;;;;;;;;5053468;28;20168;-83
2021/05/19 09:11:06;;;;;;;10.60;9.20;;;;;;;;;;5053172;28;20168;-83
2021/05/19 09:13:44;;;;;;;10.50;9.03;;;;;;;;;;5052673;28;20762;-84
2021/05/19 09:16:10;;;;;;;10.50;8.57;;;;;;;;;;5051710;28;20152;-84
2021/05/19 09:18:45;;;;;;;9.83;8.93;;;;;;;;;;5051684;28;20230;-83
2021/05/19 09:21:29;;;;;;;10.10;9.10;;;;;;;;;;5051353;28;20175;-84
2021/05/19 09:23:55;;;;;;;10.10;8.90;;;;;;;;;;5049484;28;20655;-82
2021/05/19 09:26:20;;;;;;;9.93;8.97;;;;;;;;;;5050857;28;20172;-83
2021/05/19 09:28:45;;;;;;;11.47;10.37;;;;;;;;;;5051220;28;20175;-84
2021/05/19 09:31:21;;;;;;;11.50;9.83;;;;;;;;;;5050213;28;20323;-85
2021/05/19 09:33:48;;;;;;;10.17;8.70;;;;;;;;;;5064230;28;20321;-85
2021/05/19 09:36:21;;;;;;;10.43;9.30;;;;;;;;;;5052260;28;20176;-86
2021/05/19 09:38:49;;;;;;;11.70;10.10;;;;;;;;;;5052686;28;20207;-86
2021/05/19 09:41:17;;;;;;;10.67;9.50;;;;;;;;;;5053365;28;20200;-86
2021/05/19 09:43:43;;;;;;;10.63;9.63;;;;;;;;;;5053012;28;20206;-87
2021/05/19 09:46:21;;;;;;;15.37;10.73;;;;;;;;;;5052726;28;20168;-86
2021/05/19 09:48:46;;;;;;;11.27;10.10;;;;;;;;;;5052757;28;20658;-87
2021/05/19 09:51:26;;;;;;;11.63;10.53;;;;;;;;;;5053201;28;20172;-87
2021/05/19 09:53:51;;;;;;;12.03;10.70;;;;;;;;;;5034931;28;20556;-89
2021/05/19 09:56:17;;;;;;;12.17;10.23;;;;;;;;;;5037801;28;20180;-87
2021/05/19 09:58:43;;;;;;;13.27;11.33;;;;;;;;;;5056385;28;20168;-88
2021/05/19 10:01:09;;;;;;;11.53;10.50;;;;;;;;;;5056312;28;20592;-88
2021/05/19 10:03:34;;;;;;;11.63;10.17;;;;;;;;;;5054084;28;20215;-89
2021/05/19 10:06:46;;;;;;;11.10;10.10;;;;;;;;;;5056150;28;20175;-86
2021/05/19 10:08:48;;;;;;;11.57;9.83;;;;;;;;;;5055568;28;20659;-86
2021/05/19 10:11:14;;;;;;;10.93;9.80;;;;;;;;;;5054721;28;20202;-86
2021/05/19 10:13:41;;;;;;;10.30;9.27;;;;;;;;;;5056036;28;20203;-86
2021/05/19 10:16:07;;;;;;;17.57;9.70;;;;;;;;;;5055754;28;20249;-88
2021/05/19 10:18:56;;;;;;;10.90;8.57;;;;;;;;;;5056079;28;20175;-88
2021/05/19 10:21:26;;;;;;;8.93;8.03;;;;;;;;;;5045204;28;20183;-88
2021/05/19 10:23:53;;;;;;;9.20;8.40;;;;;;;;;;5044903;28;20284;-87
2021/05/19 10:26:18;;;;;;;9.80;8.90;;;;;;;;;;5046320;28;20275;-87
2021/05/19 10:28:45;;;;;;;9.43;8.53;;;;;;;;;;5044519;28;20268;-88
2021/05/19 10:31:30;;;;;;;10.70;9.80;;;;;;;;;;5044487;28;20680;-88
2021/05/19 10:33:56;;;;;;;11.27;9.23;;;;;;;;;;5044668;28;20553;-85
2021/05/19 10:36:24;;;;;;;10.47;9.40;;;;;;;;;;5045333;28;20180;-87
2021/05/19 10:39:05;;;;;;;12.77;9.80;;;;;;;;;;5046341;28;20176;-89
2021/05/19 10:41:41;;;;;;;10.70;9.57;;;;;;;;;;5044235;28;20186;-88
2021/05/19 10:44:07;;;;;;;10.50;9.50;;;;;;;;;;5051229;28;20262;-88
2021/05/19 10:46:59;;;;;;;11.70;9.53;;;;;;;;;;5054610;28;20202;-85
2021/05/19 10:49:48;;;;;;;10.73;9.63;;;;;;;;;;5055229;28;20164;-88
2021/05/19 10:58:00;;;;;;;10.83;9.70;;;;;;;;;;5055215;28;20191;-87
2021/05/19 11:00:26;;;;;;;11.83;9.63;;;;;;;;;;5055074;28;20582;-87
2021/05/19 11:02:55;;;;;;;10.53;9.40;;;;;;;;;;5054139;28;20187;-86
2021/05/19 11:05:21;;;;;;;10.10;9.17;;;;;;;;;;5069972;28;20176;-86
2021/05/19 11:08:05;;;;;;;10.77;8.67;;;;;;;;;;5055045;28;20175;-87
2021/05/19 11:10:30;;;;;;;10.10;9.10;;;;;;;;;;5054863;28;20514;-87
2021/05/19 11:12:56;;;;;;;12.87;8.60;;;;;;;;;;5055220;28;20207;-87
2021/05/19 11:20:52;;;;;;;9.63;7.40;;;;;;;;;;5053448;28;20523;-87
2021/05/19 11:23:18;;;;;;;7.13;6.43;;;;;;;;;;5054560;28;20195;-88
2021/05/19 11:25:44;;;;;;;9.00;6.27;;;;;;;;;;5042335;28;20255;-87
2021/05/19 11:28:10;;;;;;;8.83;7.93;;;;;;;;;;5034919;28;20198;-86
2021/05/19 11:30:35;;;;;;;7.97;7.10;;;;;;;;;;5034815;28;20224;-88
2021/05/19 11:33:04;;;;;;;7.87;6.47;;;;;;;;;;5034455;28;20204;-87
2021/05/19 11:35:29;;;;;;;7.37;6.37;;;;;;;;;;5034550;28;20173;-88
2021/05/19 11:37:59;;;;;;;7.47;6.63;;;;;;;;;;5034876;28;20518;-87
2021/05/19 11:40:40;;;;;;;11.83;6.53;;;;;;;;;;5034300;28;20651;-88
2021/05/19 11:43:05;;;;;;;9.03;6.33;;;;;;;;;;5033234;28;20605;-88
2021/05/19 11:45:31;;;;;;;7.67;6.17;;;;;;;;;;5034234;28;20283;-87
2021/05/19 11:47:56;;;;;;;11.13;6.03;;;;;;;;;;5034635;28;20364;-88
2021/05/19 11:50:28;;;;;;;5.33;4.43;;;;;;;;;;5034413;28;20169;-88
2021/05/19 11:52:59;;;;;;;6.57;3.17;;;;;;;;;;5034482;28;20287;-88
2021/05/19 11:55:32;;;;;;;3.83;2.60;;;;;;;;;;5034339;28;20179;-89
2021/05/19 11:58:16;;;;;;;16.37;4.60;;;;;;;;;;5042265;28;20705;-88
2021/05/19 12:00:43;;;;;;;3.87;3.20;;;;;;;;;;5042332;28;20179;-87
2021/05/19 12:03:09;;;;;;;14.03;3.80;;;;;;;;;;5053192;28;20183;-87
2021/05/19 12:05:42;;;;;;;3.37;3.07;;;;;;;;;;5050239;28;20179;-89
2021/05/19 12:08:07;;;;;;;5.53;3.10;;;;;;;;;;5051763;28;20285;-88
2021/05/19 12:10:33;;;;;;;3.07;2.87;;;;;;;;;;5051993;28;20255;-88
2021/05/19 12:12:59;;;;;;;3.27;2.97;;;;;;;;;;5051672;28;20199;-87
2021/05/19 12:15:25;;;;;;;3.37;3.07;;;;;;;;;;5048654;28;20233;-88
2021/05/19 12:18:00;;;;;;;4.50;3.50;;;;;;;;;;5049188;28;20180;-86
2021/05/19 12:20:27;;;;;;;3.60;3.30;;;;;;;;;;5041863;28;20187;-87
2021/05/19 12:22:55;;;;;;;3.30;3.10;;;;;;;;;;5045444;28;20301;-87
2021/05/19 12:25:20;;;;;;;3.53;3.23;;;;;;;;;;5043118;28;20195;-88
2021/05/19 12:27:49;;;;;;;3.37;3.10;;;;;;;;;;5048610;28;20280;-88
2021/05/19 12:30:15;;;;;;;3.97;2.70;;;;;;;;;;5051224;28;20230;-88
2021/05/19 12:32:52;;;;;;;3.97;3.53;;;;;;;;;;5045457;28;20203;-90
2021/05/19 12:35:18;;;;;;;3.50;3.20;;;;;;;;;;5041438;28;20215;-89
2021/05/19 12:37:44;;;;;;;3.20;2.87;;;;;;;;;;5041509;28;20204;-87
2021/05/19 12:40:12;;;;;;;3.90;3.20;;;;;;;;;;5050868;28;20191;-88
2021/05/19 12:42:53;;;;;;;5.50;3.57;;;;;;;;;;5051687;28;20175;-88
2021/05/19 12:45:23;;;;;;;3.47;3.20;;;;;;;;;;5056161;28;20184;-86
2021/05/19 12:47:59;;;;;;;8.73;3.60;;;;;;;;;;5047067;28;20206;-88
2021/05/19 12:50:25;;;;;;;5.70;3.70;;;;;;;;;;5048120;28;20223;-89
2021/05/19 12:52:51;;;;;;;7.07;3.70;;;;;;;;;;5048670;28;20211;-87
2021/05/19 12:55:22;;;;;;;5.63;3.43;;;;;;;;;;5046522;28;20266;-90
2021/05/19 12:57:47;;;;;;;14.80;4.80;;;;;;;;;;5044341;28;20612;-89
2021/05/19 13:00:16;;;;;;;3.50;3.20;;;;;;;;;;5049679;28;20255;-89
2021/05/19 13:02:45;;;;;;;12.40;4.57;;;;;;;;;;5042053;28;20184;-86
2021/05/19 13:05:21;;;;;;;5.53;3.73;;;;;;;;;;5049819;28;20187;-87
2021/05/19 13:07:49;;;;;;;4.27;3.87;;;;;;;;;;5051966;28;20250;-88
2021/05/19 13:10:24;;;;;;;4.30;3.13;;;;;;;;;;5053049;28;20564;-88
2021/05/19 13:12:50;;;;;;;4.37;3.30;;;;;;;;;;5053048;28;20214;-88
2021/05/19 13:15:26;;;;;;;3.63;3.37;;;;;;;;;;5052406;28;20255;-87
2021/05/19 13:18:10;;;;;;;6.17;4.00;;;;;;;;;;5053056;28;20624;-88
2021/05/19 13:20:37;;;;;;;6.80;4.20;;;;;;;;;;5053317;28;20234;-88
2021/05/19 13:23:04;;;;;;;4.13;3.70;;;;;;;;;;5053313;28;20167;-88
2021/05/19 13:25:30;;;;;;;4.87;4.33;;;;;;;;;;5053246;28;20647;-88
2021/05/19 13:27:55;;;;;;;6.07;3.67;;;;;;;;;;5051443;28;20214;-88
2021/05/19 13:30:24;;;;;;;6.00;3.73;;;;;;;;;;5051874;28;20263;-85
2021/05/19 13:38:02;;;;;;;4.10;3.80;;;;;;;;;;5054815;28;20655;-85
2021/05/19 13:40:27;;;;;;;4.50;3.70;;;;;;;;;;5056068;28;20188;-85
2021/05/19 13:42:52;;;;;;;3.80;3.50;;;;;;;;;;5057475;28;20176;-85
2021/05/19 13:45:18;;;;;;;4.43;4.03;;;;;;;;;;5056674;28;20172;-85
2021/05/19 13:47:44;;;;;;;4.40;4.00;;;;;;;;;;5072191;28;20194;-85
2021/05/19 13:50:09;;;;;;;5.67;4.60;;;;;;;;;;5057075;28;20218;-85
2021/05/19 13:52:39;;;;;;;4.43;3.80;;;;;;;;;;5056469;28;20195;-85
2021/05/19 13:55:05;;;;;;;4.23;3.93;;;;;;;;;;5056940;28;20215;-85
2021/05/19 13:57:30;;;;;;;4.13;3.73;;;;;;;;;;5056209;28;20175;-85
2021/05/19 13:59:59;;;;;;;4.30;3.80;;;;;;;;;;5055374;28;20217;-85
2021/05/19 14:02:26;;;;;;;5.17;3.40;;;;;;;;;;5056700;28;20210;-85
2021/05/19 14:04:52;;;;;;;6.23;3.83;;;;;;;;;;5056273;28;20582;-84
2021/05/19 14:07:18;;;;;;;4.53;3.70;;;;;;;;;;5047765;28;20184;-85
2021/05/19 14:09:43;;;;;;;4.07;3.67;;;;;;;;;;5044620;28;20180;-85
2021/05/19 14:12:16;;;;;;;3.87;3.47;;;;;;;;;;5045144;28;20739;-85
2021/05/19 14:27:43;;;;;;;4.37;3.97;;;;;;;;;;5045767;28;20182;-86
2021/05/19 14:30:17;;;;;;;4.43;3.87;;;;;;;;;;5049944;28;20236;-87
2021/05/19 14:32:43;;;;;;;5.03;4.10;;;;;;;;;;5048841;28;20257;-87
2021/05/19 15:02:05;;;;;;;4.00;3.70;;;;;;;;;;5053831;28;20589;-85
2021/05/19 15:04:30;;;;;;;3.70;3.40;;;;;;;;;;5053443;28;20175;-85
2021/05/19 15:06:55;;;;;;;5.17;4.07;;;;;;;;;;5054490;28;20245;-86
2021/05/19 15:09:21;;;;;;;3.87;3.43;;;;;;;;;;5055283;28;20164;-85
2021/05/19 15:11:46;;;;;;;4.10;3.60;;;;;;;;;;5050714;28;20179;-86
2021/05/19 15:14:12;;;;;;;3.97;3.67;;;;;;;;;;5053342;28;20207;-86
2021/05/19 15:16:37;;;;;;;4.87;3.53;;;;;;;;;;5055754;28;20175;-87
2021/05/19 15:19:04;;;;;;;4.33;3.93;;;;;;;;;;5038036;28;20239;-86
2021/05/19 15:21:30;;;;;;;3.90;3.40;;;;;;;;;;5039353;28;20238;-86
2021/05/19 15:23:55;;;;;;;3.43;3.20;;;;;;;;;;5034812;28;20640;-86
2021/05/19 15:26:21;;;;;;;3.30;2.77;;;;;;;;;;5034615;28;20675;-86
2021/05/19 15:28:46;;;;;;;3.10;2.90;;;;;;;;;;5035323;28;20246;-85
2021/05/19 15:31:11;;;;;;;3.13;2.80;;;;;;;;;;5034719;28;20322;-86
2021/05/19 15:33:37;;;;;;;5.47;3.10;;;;;;;;;;5035002;28;20200;-85
2021/05/19 15:36:06;;;;;;;3.50;3.20;;;;;;;;;;5034617;28;20539;-85